Morges, Ohio
Current Conditions -  °F | °C
As of 8:53 AM on Sunday 23 Nov 2014 (Local Time) from KPHD Reporting Station
Overcast Overcast  
Wind Chill: 47°   Ceiling: 10000
Heat Index: 49°   Visibility: 10mi
Dew Point: 32°   Wind: 5mph
Humidity: 52%   Direction: 130°SE
Pressure: 30.07"   Gusts: NA
Location:  40.65°N, 81.2986°W
Report Text: KPHD 231353Z AUTO 13004KT 10SM FEW037 OVC100 09/00 A3007 RMK AO2 SLP185 T00940000
Loading
Personal Weather Stations






























Interactive Weather Map New forecast layout! Learn more

10-Day Weather Forecast

Advertisements
Track Severe Weather on mobile